Time;durP1;ratioP1;P1;durP2;ratioP2;P2;SDS_P1;SDS_P2;PMS_P1;PMS_P2;Temp;Humidity;BMP_temperature;BMP_pressure;BME280_temperature;BME280_humidity;BME280_pressure;Samples;Min_cycle;Max_cycle;Signal;HPM_P1;HPM_P2
2021/03/13 00:01:14;;;;;;;2.25;1.17;;;8.20;99.90;;;;;;5035234;28;20101;-79
2021/03/13 00:03:40;;;;;;;7.63;0.88;;;8.10;99.90;;;;;;5057816;28;20111;-77
2021/03/13 00:06:07;;;;;;;3.15;1.08;;;8.10;99.90;;;;;;5055196;28;20114;-76
2021/03/13 00:08:36;;;;;;;1.05;0.75;;;8.00;99.90;;;;;;5062141;28;20057;-80
2021/03/13 00:11:04;;;;;;;1.05;0.68;;;8.10;99.90;;;;;;5054365;28;20471;-80
2021/03/13 00:13:32;;;;;;;1.83;0.70;;;8.00;99.90;;;;;;5052043;28;20107;-80
2021/03/13 00:15:58;;;;;;;3.53;0.90;;;7.80;99.90;;;;;;5054820;28;20076;-81
2021/03/13 00:18:25;;;;;;;0.93;0.52;;;7.70;99.90;;;;;;5062194;28;20062;-79
2021/03/13 00:20:52;;;;;;;1.50;0.57;;;7.60;99.90;;;;;;5053413;28;20095;-80
2021/03/13 00:23:18;;;;;;;1.77;0.70;;;7.60;99.90;;;;;;5051872;28;20118;-79
2021/03/13 00:25:45;;;;;;;3.05;0.63;;;7.50;99.90;;;;;;5056459;28;20045;-80
2021/03/13 00:28:12;;;;;;;1.08;0.57;;;7.50;99.90;;;;;;5059636;28;20419;-79
2021/03/13 00:30:47;;;;;;;0.60;0.40;;;7.50;99.90;;;;;;5060865;28;20492;-79
2021/03/13 00:33:17;;;;;;;1.00;0.55;;;7.60;99.90;;;;;;5052566;28;20056;-79
2021/03/13 00:35:48;;;;;;;0.63;0.55;;;7.60;99.90;;;;;;5047640;28;20041;-79
2021/03/13 00:38:14;;;;;;;;;;;7.60;99.90;;;;;;5055665;28;20056;-76
2021/03/13 00:40:42;;;;;;;0.68;0.50;;;7.50;99.90;;;;;;5061510;28;20332;-80
2021/03/13 00:43:11;;;;;;;1.15;0.68;;;7.50;99.90;;;;;;5061415;28;20044;-79
2021/03/13 00:45:39;;;;;;;1.33;0.60;;;7.60;99.90;;;;;;5054000;28;20515;-76
2021/03/13 00:48:07;;;;;;;0.88;0.50;;;7.60;99.90;;;;;;5061881;28;20549;-80
2021/03/13 00:50:35;;;;;;;0.95;0.47;;;7.50;99.90;;;;;;5053458;28;20110;-81
2021/03/13 00:53:02;;;;;;;0.70;0.55;;;7.60;99.90;;;;;;5054523;28;20094;-79
2021/03/13 00:55:29;;;;;;;0.98;0.50;;;7.50;99.90;;;;;;5054785;28;20140;-78
2021/03/13 00:57:55;;;;;;;0.80;0.40;;;7.50;99.90;;;;;;5052946;28;20072;-79
2021/03/13 01:00:38;;;;;;;0.43;0.43;;;7.50;99.90;;;;;;5054401;28;20049;-80
2021/03/13 01:03:05;;;;;;;1.80;0.60;;;7.60;99.90;;;;;;5052548;28;20080;-81
2021/03/13 01:05:33;;;;;;;0.85;0.50;;;7.60;99.90;;;;;;5050177;28;20488;-81
2021/03/13 01:07:59;;;;;;;0.45;0.40;;;7.70;99.90;;;;;;5053705;28;20072;-81
2021/03/13 01:10:46;;;;;;;0.98;0.43;;;7.70;99.90;;;;;;5057915;28;20443;-81
2021/03/13 01:13:13;;;;;;;0.85;0.60;;;7.50;99.90;;;;;;5058332;28;20049;-82
2021/03/13 01:15:40;;;;;;;2.30;0.50;;;7.60;99.90;;;;;;5051058;28;20041;-81
2021/03/13 01:18:07;;;;;;;1.98;0.80;;;7.50;99.90;;;;;;5055686;28;20048;-79
2021/03/13 01:20:34;;;;;;;2.72;0.70;;;7.50;99.90;;;;;;5053188;28;20117;-79
2021/03/13 01:23:01;;;;;;;0.50;0.45;;;7.60;99.90;;;;;;5054076;28;20048;-79
2021/03/13 01:25:27;;;;;;;2.67;0.50;;;7.50;99.90;;;;;;5053519;28;20143;-79
2021/03/13 01:27:53;;;;;;;0.63;0.40;;;7.50;99.90;;;;;;5061426;28;20460;-75
2021/03/13 01:30:21;;;;;;;1.48;0.60;;;7.60;99.90;;;;;;5051087;28;20138;-78
2021/03/13 01:32:48;;;;;;;0.70;0.52;;;7.60;99.90;;;;;;5053255;28;20045;-78
2021/03/13 01:35:15;;;;;;;1.33;0.50;;;7.60;99.90;;;;;;5049856;28;20060;-79
2021/03/13 01:37:41;;;;;;;2.40;0.50;;;7.60;99.90;;;;;;5054737;28;20060;-78
2021/03/13 01:40:11;;;;;;;1.08;0.55;;;7.60;99.90;;;;;;5050820;28;20105;-79
2021/03/13 01:42:38;;;;;;;0.82;0.60;;;7.60;99.90;;;;;;5073618;28;20502;-77
2021/03/13 01:45:07;;;;;;;1.38;0.60;;;7.60;99.90;;;;;;5071921;28;20055;-77
2021/03/13 01:47:33;;;;;;;1.52;0.65;;;7.70;99.90;;;;;;5079892;28;20053;-78
2021/03/13 01:50:01;;;;;;;1.20;0.63;;;7.70;99.90;;;;;;5072419;28;20103;-78
2021/03/13 01:52:27;;;;;;;0.68;0.68;;;7.60;99.90;;;;;;5071672;28;20056;-78
2021/03/13 01:54:55;;;;;;;1.48;0.82;;;7.60;99.90;;;;;;5070860;28;20044;-79
2021/03/13 01:57:22;;;;;;;3.28;0.80;;;7.50;99.90;;;;;;5069853;28;20076;-79
2021/03/13 01:59:48;;;;;;;4.03;0.63;;;7.20;99.90;;;;;;5065144;28;20083;-79
2021/03/13 02:02:16;;;;;;;1.35;0.77;;;6.90;99.90;;;;;;5075790;28;20059;-79
2021/03/13 02:04:43;;;;;;;2.45;0.80;;;7.00;99.90;;;;;;5073206;28;20114;-79
2021/03/13 02:07:24;;;;;;;5.25;1.00;;;7.10;99.90;;;;;;5076083;28;20051;-79
2021/03/13 02:09:58;;;;;;;3.83;1.05;;;7.10;99.90;;;;;;5073936;28;20049;-77
2021/03/13 02:12:31;;;;;;;1.83;0.80;;;6.80;99.90;;;;;;5072737;28;20044;-78
2021/03/13 02:15:02;;;;;;;0.98;0.70;;;6.80;99.90;;;;;;5070817;28;20048;-78
2021/03/13 02:17:56;;;;;;;3.03;0.82;;;6.80;99.90;;;;;;5067889;28;20048;-78
2021/03/13 02:20:53;;;;;;;2.30;0.70;;;6.90;99.90;;;;;;5062701;28;20052;-79
2021/03/13 02:23:20;;;;;;;3.47;0.75;;;6.90;99.90;;;;;;5072980;28;20151;-79
2021/03/13 02:26:15;;;;;;;1.20;0.77;;;7.00;99.90;;;;;;5064550;28;20040;-78
2021/03/13 02:29:14;;;;;;;2.88;0.65;;;7.10;99.90;;;;;;5071375;28;20041;-79
2021/03/13 02:31:52;;;;;;;3.30;0.73;;;7.10;99.90;;;;;;5058815;28;20052;-79
2021/03/13 02:34:28;;;;;;;2.00;0.63;;;7.00;99.90;;;;;;5068122;28;20067;-78
2021/03/13 02:36:57;;;;;;;1.17;0.93;;;7.10;99.90;;;;;;5073343;28;20045;-79
2021/03/13 02:39:26;;;;;;;3.53;0.80;;;7.20;99.90;;;;;;5062160;28;20041;-78
2021/03/13 02:41:58;;;;;;;1.85;0.55;;;7.10;99.90;;;;;;5064352;28;20053;-78
2021/03/13 02:44:25;;;;;;;1.88;0.80;;;7.10;99.90;;;;;;5064262;28;20049;-78
2021/03/13 02:46:52;;;;;;;4.13;1.00;;;7.20;99.90;;;;;;5063163;28;20044;-78
2021/03/13 02:49:21;;;;;;;0.75;0.75;;;7.10;99.90;;;;;;5068199;28;20119;-78
2021/03/13 02:51:49;;;;;;;4.75;1.30;;;7.20;99.90;;;;;;5059010;28;20130;-79
2021/03/13 02:54:17;;;;;;;3.05;1.00;;;7.20;99.90;;;;;;5067036;28;20484;-79
2021/03/13 02:56:44;;;;;;;1.25;0.95;;;7.20;99.90;;;;;;5068083;28;20048;-78
2021/03/13 02:59:14;;;;;;;2.05;1.10;;;7.30;99.90;;;;;;5062265;28;20047;-78
2021/03/13 03:01:53;;;;;;;3.08;1.02;;;7.30;99.90;;;;;;5071755;28;20075;-78
2021/03/13 03:04:20;;;;;;;1.67;0.90;;;7.30;99.90;;;;;;5069113;28;20490;-78
2021/03/13 03:06:49;;;;;;;2.95;0.70;;;7.30;99.90;;;;;;5069429;28;20068;-78
2021/03/13 03:09:17;;;;;;;1.70;1.00;;;7.40;99.90;;;;;;5071888;28;20439;-78
2021/03/13 03:11:45;;;;;;;2.35;0.73;;;7.60;99.90;;;;;;5068519;28;20391;-78
2021/03/13 03:14:13;;;;;;;0.90;0.60;;;7.50;99.90;;;;;;5062769;28;20126;-79
2021/03/13 03:16:42;;;;;;;3.70;1.10;;;7.60;99.90;;;;;;5072294;28;20053;-79
2021/03/13 03:19:10;;;;;;;3.58;1.00;;;7.30;99.90;;;;;;5065428;28;20045;-79
2021/03/13 03:21:40;;;;;;;3.85;1.30;;;7.30;99.90;;;;;;5058748;28;20447;-77
2021/03/13 03:24:10;;;;;;;3.17;1.20;;;7.40;99.90;;;;;;5070778;28;20059;-77
2021/03/13 03:26:36;;;;;;;7.80;1.55;;;7.40;99.90;;;;;;5068128;28;20055;-79
2021/03/13 03:29:03;;;;;;;4.78;1.50;;;7.30;99.90;;;;;;5069119;28;20423;-78
2021/03/13 03:31:30;;;;;;;5.50;1.60;;;7.30;99.90;;;;;;5065021;28;20048;-77
2021/03/13 03:33:58;;;;;;;6.38;1.73;;;7.40;99.90;;;;;;5066822;28;20486;-76
2021/03/13 03:36:24;;;;;;;3.40;1.85;;;7.40;99.90;;;;;;5065467;28;20045;-78
2021/03/13 03:38:54;;;;;;;3.05;1.33;;;7.40;99.90;;;;;;5077320;28;20048;-78
2021/03/13 03:41:21;;;;;;;3.13;1.52;;;7.50;99.90;;;;;;5072791;28;20032;-79
2021/03/13 03:43:56;;;;;;;3.80;1.60;;;7.50;99.90;;;;;;5075616;28;20045;-79
2021/03/13 03:46:25;;;;;;;1.38;1.13;;;7.50;99.90;;;;;;5073618;28;20509;-80
2021/03/13 03:48:53;;;;;;;1.80;1.27;;;7.50;99.90;;;;;;5077683;28;20045;-78
2021/03/13 03:51:24;;;;;;;5.25;1.40;;;7.60;99.90;;;;;;5068228;28;20068;-79
2021/03/13 03:53:51;;;;;;;3.35;1.10;;;7.50;99.90;;;;;;5071807;28;20045;-76
2021/03/13 03:56:20;;;;;;;2.42;1.02;;;7.60;99.90;;;;;;5065504;28;20044;-75
2021/03/13 03:58:48;;;;;;;0.70;0.63;;;7.70;99.90;;;;;;5078269;28;20052;-78
2021/03/13 04:01:15;;;;;;;3.58;0.85;;;7.60;99.90;;;;;;5069153;28;20048;-79
2021/03/13 04:03:51;;;;;;;2.17;0.90;;;7.80;99.90;;;;;;5073661;28;20453;-78
2021/03/13 04:06:18;;;;;;;2.08;0.90;;;7.70;99.90;;;;;;5074732;28;20094;-79
2021/03/13 04:08:47;;;;;;;3.35;1.65;;;7.70;99.90;;;;;;5070102;28;20146;-79
2021/03/13 04:11:21;;;;;;;3.05;1.65;;;7.70;99.90;;;;;;5073018;28;20044;-79
2021/03/13 04:13:49;;;;;;;1.40;1.00;;;7.60;99.90;;;;;;5077618;28;20067;-79
2021/03/13 04:16:16;;;;;;;3.33;0.85;;;7.60;99.90;;;;;;5072236;28;20074;-79
2021/03/13 04:18:43;;;;;;;1.48;0.60;;;7.60;99.90;;;;;;5070426;28;20068;-80
2021/03/13 04:21:12;;;;;;;0.35;0.30;;;7.60;99.90;;;;;;5062910;28;20044;-78
2021/03/13 04:23:42;;;;;;;2.22;0.40;;;7.60;99.90;;;;;;5067147;28;20044;-79
2021/03/13 04:26:08;;;;;;;0.73;0.40;;;7.60;99.90;;;;;;5073064;28;20072;-79
2021/03/13 04:28:35;;;;;;;1.63;0.98;;;7.50;99.90;;;;;;5072151;28;20087;-79
2021/03/13 04:31:02;;;;;;;0.45;0.32;;;7.60;99.90;;;;;;5069227;28;20404;-79
2021/03/13 04:33:31;;;;;;;1.20;0.75;;;7.50;99.90;;;;;;5069032;28;20139;-80
2021/03/13 04:35:58;;;;;;;6.80;0.90;;;7.60;99.90;;;;;;5071356;28;20109;-79
2021/03/13 04:38:26;;;;;;;1.25;0.55;;;7.60;99.90;;;;;;5072771;28;20054;-79
2021/03/13 04:40:53;;;;;;;1.83;0.65;;;7.80;99.90;;;;;;5066015;28;20057;-79
2021/03/13 04:43:24;;;;;;;4.10;0.65;;;7.80;99.90;;;;;;5071113;28;20751;-79
2021/03/13 04:45:54;;;;;;;2.33;0.63;;;7.70;99.90;;;;;;5072062;28;20078;-80
2021/03/13 04:48:21;;;;;;;5.32;0.98;;;7.70;99.90;;;;;;5069448;28;20135;-80
2021/03/13 04:50:47;;;;;;;3.25;0.75;;;7.80;99.90;;;;;;5067378;28;20056;-76
2021/03/13 04:53:14;;;;;;;2.75;0.80;;;7.80;99.90;;;;;;5064485;28;20488;-77
2021/03/13 04:55:40;;;;;;;4.47;0.80;;;7.90;99.90;;;;;;5071393;28;20091;-79
2021/03/13 04:58:07;;;;;;;3.58;0.70;;;8.00;99.90;;;;;;5072348;28;20040;-79
2021/03/13 05:00:34;;;;;;;4.00;1.10;;;8.10;99.90;;;;;;5067880;28;20057;-78
2021/03/13 05:03:00;;;;;;;1.98;0.70;;;8.10;99.90;;;;;;5066688;28;20472;-77
2021/03/13 05:05:30;;;;;;;4.30;0.80;;;8.20;99.90;;;;;;5068563;28;20510;-78
2021/03/13 05:07:56;;;;;;;2.38;0.90;;;8.30;99.90;;;;;;5069964;28;20080;-79
2021/03/13 05:10:23;;;;;;;2.53;0.77;;;8.30;99.90;;;;;;5067941;28;20544;-77
2021/03/13 05:12:51;;;;;;;3.60;0.90;;;8.40;99.90;;;;;;5069241;28;20048;-79
2021/03/13 05:15:18;;;;;;;3.38;1.10;;;8.50;99.90;;;;;;5068505;28;20052;-78
2021/03/13 05:17:44;;;;;;;5.30;1.00;;;8.40;99.90;;;;;;5059979;28;20067;-78
2021/03/13 05:20:11;;;;;;;4.50;1.20;;;8.50;99.90;;;;;;5067533;28;20084;-78
2021/03/13 05:22:38;;;;;;;5.80;1.20;;;8.40;99.90;;;;;;5071708;28;20052;-78
2021/03/13 05:25:06;;;;;;;1.73;0.80;;;8.40;99.90;;;;;;5071458;28;20114;-78
2021/03/13 05:27:33;;;;;;;2.13;0.70;;;8.50;99.90;;;;;;5078067;28;20078;-79
2021/03/13 05:29:59;;;;;;;3.20;0.80;;;8.50;99.90;;;;;;5076503;28;20052;-77
2021/03/13 05:32:26;;;;;;;5.68;0.70;;;8.40;99.90;;;;;;5071960;28;20071;-78
2021/03/13 05:34:54;;;;;;;4.43;0.77;;;8.30;99.90;;;;;;5076046;28;20045;-79
2021/03/13 05:37:20;;;;;;;3.95;0.70;;;8.20;99.90;;;;;;5077850;28;20070;-78
2021/03/13 05:39:47;;;;;;;2.33;1.00;;;8.20;99.90;;;;;;5067007;28;20102;-78
2021/03/13 05:42:13;;;;;;;4.28;1.08;;;8.20;99.90;;;;;;5067271;28;20103;-78
2021/03/13 05:44:40;;;;;;;6.57;0.90;;;8.10;99.90;;;;;;5069581;28;20040;-79
2021/03/13 05:47:07;;;;;;;3.78;0.80;;;8.20;99.90;;;;;;5066367;28;20098;-79
2021/03/13 05:49:37;;;;;;;4.55;0.98;;;8.20;99.90;;;;;;5061782;28;20102;-78
2021/03/13 05:52:06;;;;;;;3.78;1.13;;;8.30;99.90;;;;;;5066913;28;20442;-78
2021/03/13 05:54:33;;;;;;;5.65;1.13;;;8.40;99.90;;;;;;5063545;28;20095;-77
2021/03/13 05:57:00;;;;;;;4.22;0.70;;;8.30;99.90;;;;;;5070655;28;20451;-78
2021/03/13 05:59:27;;;;;;;2.75;1.00;;;8.40;99.90;;;;;;5068332;28;20479;-79
2021/03/13 06:01:54;;;;;;;2.63;1.00;;;8.30;99.90;;;;;;5066567;28;20129;-77
2021/03/13 06:04:24;;;;;;;4.00;1.17;;;8.40;99.90;;;;;;5068545;28;20053;-78
2021/03/13 06:06:52;;;;;;;0.95;0.55;;;8.50;99.90;;;;;;5067738;28;20071;-79
2021/03/13 06:09:19;;;;;;;3.58;0.90;;;8.40;99.90;;;;;;5066682;28;20438;-78
2021/03/13 06:11:46;;;;;;;1.50;0.77;;;8.40;99.90;;;;;;5066527;28;20162;-77
2021/03/13 06:14:12;;;;;;;3.53;0.70;;;8.60;99.90;;;;;;5070284;28;20480;-78
2021/03/13 06:16:39;;;;;;;5.18;1.00;;;8.60;99.90;;;;;;5066889;28;20102;-79
2021/03/13 06:19:05;;;;;;;4.15;0.57;;;8.60;99.90;;;;;;5061818;28;20076;-79
2021/03/13 06:21:37;;;;;;;2.38;0.82;;;8.60;99.90;;;;;;5069097;28;20075;-79
2021/03/13 06:24:09;;;;;;;15.88;1.77;;;8.60;99.90;;;;;;5070972;28;20422;-79
2021/03/13 06:26:56;;;;;;;3.13;0.95;;;8.70;99.90;;;;;;5066906;28;20132;-79
2021/03/13 06:29:23;;;;;;;5.82;0.90;;;8.80;99.90;;;;;;5067978;28;20105;-78
2021/03/13 06:32:13;;;;;;;2.00;0.70;;;8.80;99.90;;;;;;5066178;28;20135;-79
2021/03/13 06:35:18;;;;;;;4.85;0.90;;;8.80;99.90;;;;;;5069271;28;20044;-79
2021/03/13 06:37:45;;;;;;;3.97;0.90;;;8.80;99.90;;;;;;5059659;28;20048;-79
2021/03/13 06:40:34;;;;;;;2.08;0.70;;;8.90;99.90;;;;;;5065732;28;20045;-79
2021/03/13 06:43:27;;;;;;;5.70;1.20;;;8.90;99.90;;;;;;5064067;28;20048;-78
2021/03/13 06:45:59;;;;;;;2.95;0.60;;;9.00;99.90;;;;;;5061075;28;20059;-78
2021/03/13 06:48:31;;;;;;;3.05;1.15;;;9.00;99.90;;;;;;5070344;28;20090;-78
2021/03/13 06:51:17;;;;;;;2.28;0.65;;;9.00;99.90;;;;;;5067828;28;20053;-79
2021/03/13 06:53:44;;;;;;;3.95;0.80;;;9.00;99.90;;;;;;5066806;28;20078;-79
2021/03/13 06:56:12;;;;;;;3.35;0.93;;;8.90;99.90;;;;;;5072450;28;20499;-79
2021/03/13 06:58:40;;;;;;;2.60;0.70;;;9.00;99.90;;;;;;5071270;28;20044;-79
2021/03/13 07:01:07;;;;;;;4.30;0.68;;;9.00;99.90;;;;;;5070251;28;20112;-78
2021/03/13 07:03:50;;;;;;;3.92;0.82;;;9.00;99.90;;;;;;5065479;28;20495;-79
2021/03/13 07:06:18;;;;;;;5.13;0.90;;;9.00;99.90;;;;;;5072182;28;20088;-79
2021/03/13 07:08:45;;;;;;;2.70;0.93;;;9.10;99.90;;;;;;5072454;28;20048;-79
2021/03/13 07:11:13;;;;;;;3.03;1.02;;;9.10;99.90;;;;;;5069103;28;20202;-79
2021/03/13 07:13:45;;;;;;;3.83;0.90;;;9.20;99.90;;;;;;5067618;28;20380;-79
2021/03/13 07:16:34;;;;;;;2.58;1.00;;;9.20;99.90;;;;;;5069502;28;20093;-80
2021/03/13 07:19:09;;;;;;;5.32;0.80;;;9.20;99.90;;;;;;5072330;28;20368;-77
2021/03/13 07:21:41;;;;;;;8.18;1.02;;;9.30;99.50;;;;;;5069856;28;20052;-79
2021/03/13 07:24:13;;;;;;;1.50;0.55;;;9.30;99.00;;;;;;5066149;28;20053;-78
2021/03/13 07:26:41;;;;;;;3.83;1.08;;;9.40;98.00;;;;;;5072588;28;20072;-79
2021/03/13 07:29:09;;;;;;;7.13;0.98;;;9.50;97.60;;;;;;5069463;28;20472;-77
2021/03/13 07:31:39;;;;;;;2.60;1.00;;;9.50;97.40;;;;;;5070404;28;20469;-79
2021/03/13 07:34:10;;;;;;;3.75;0.70;;;9.60;97.10;;;;;;5070383;28;20040;-79
2021/03/13 07:36:41;;;;;;;2.72;0.73;;;9.60;96.50;;;;;;5069350;28;20132;-77
2021/03/13 07:39:22;;;;;;;3.15;0.80;;;9.60;96.10;;;;;;5074978;28;20075;-79
2021/03/13 07:41:57;;;;;;;2.70;0.80;;;9.60;96.10;;;;;;5069978;28;20112;-79
2021/03/13 07:44:24;;;;;;;5.10;0.60;;;9.80;95.40;;;;;;5070696;28;20048;-81
2021/03/13 07:46:51;;;;;;;1.85;0.82;;;9.90;94.10;;;;;;5073047;28;20060;-79
2021/03/13 07:49:18;;;;;;;5.10;0.90;;;9.90;93.40;;;;;;5074733;28;20441;-79
2021/03/13 07:51:44;;;;;;;2.92;1.00;;;10.00;92.70;;;;;;5068613;28;20060;-79
2021/03/13 07:54:11;;;;;;;2.55;1.23;;;10.20;91.60;;;;;;5078894;28;20040;-79
2021/03/13 07:56:41;;;;;;;1.98;0.60;;;10.10;91.20;;;;;;5078369;28;20833;-78
2021/03/13 07:59:32;;;;;;;2.58;1.02;;;10.20;91.10;;;;;;5077255;28;20079;-77
2021/03/13 08:01:58;;;;;;;2.30;0.70;;;10.10;91.10;;;;;;5081045;28;20048;-79
2021/03/13 08:04:37;;;;;;;2.58;0.70;;;10.00;91.20;;;;;;5077996;28;20056;-78
2021/03/13 08:07:06;;;;;;;1.83;0.68;;;10.00;91.20;;;;;;5080875;28;20108;-78
2021/03/13 08:09:32;;;;;;;1.48;0.70;;;10.00;91.10;;;;;;5073887;28;20048;-80
2021/03/13 08:11:59;;;;;;;7.20;0.90;;;10.10;91.20;;;;;;5073850;28;20132;-78
2021/03/13 08:14:33;;;;;;;2.40;0.80;;;10.00;90.90;;;;;;5078385;28;20040;-78
2021/03/13 08:17:09;;;;;;;4.88;0.98;;;10.00;90.30;;;;;;5078107;28;20047;-78
2021/03/13 08:19:45;;;;;;;2.83;0.73;;;10.10;90.40;;;;;;5076373;28;20053;-79
2021/03/13 08:22:17;;;;;;;5.85;1.05;;;10.00;90.10;;;;;;5073224;28;20503;-78
2021/03/13 08:24:46;;;;;;;4.70;1.00;;;10.10;90.00;;;;;;5074817;28;20108;-79
2021/03/13 08:27:15;;;;;;;2.10;0.83;;;10.10;89.10;;;;;;5072763;28;20041;-78
2021/03/13 08:29:53;;;;;;;6.65;0.93;;;10.10;88.60;;;;;;5080148;28;20077;-79
2021/03/13 08:32:58;;;;;;;5.68;0.90;;;10.00;88.70;;;;;;5078626;28;20049;-78
2021/03/13 08:35:40;;;;;;;2.40;0.82;;;10.20;88.30;;;;;;5073642;28;20066;-77
2021/03/13 08:38:07;;;;;;;1.88;0.60;;;10.10;87.50;;;;;;5073924;28;20079;-78
2021/03/13 08:40:33;;;;;;;4.53;1.00;;;10.30;89.00;;;;;;5079813;28;20078;-78
2021/03/13 08:43:39;;;;;;;3.05;0.80;;;10.20;88.80;;;;;;5067904;28;20486;-78
2021/03/13 08:46:45;;;;;;;4.90;0.70;;;10.30;88.50;;;;;;5069035;28;20048;-78
2021/03/13 08:49:25;;;;;;;2.25;0.80;;;10.30;88.50;;;;;;5088486;28;20643;-78
2021/03/13 08:52:10;;;;;;;1.95;0.68;;;10.30;89.10;;;;;;5067051;28;20076;-78
2021/03/13 08:54:38;;;;;;;2.03;0.68;;;10.30;88.90;;;;;;5069576;28;20056;-79
2021/03/13 08:57:09;;;;;;;1.95;0.60;;;10.30;88.60;;;;;;5065719;28;20052;-76
2021/03/13 08:59:38;;;;;;;2.75;0.73;;;10.50;88.30;;;;;;5065617;28;20044;-79
2021/03/13 09:02:08;;;;;;;1.40;0.70;;;10.50;87.80;;;;;;5062169;28;21305;-78
2021/03/13 09:04:36;;;;;;;5.85;0.60;;;10.60;87.00;;;;;;5062785;28;20049;-78
2021/03/13 09:07:05;;;;;;;2.95;0.75;;;10.60;87.50;;;;;;5069000;28;20063;-78
2021/03/13 09:09:34;;;;;;;3.72;0.73;;;10.50;86.10;;;;;;5067826;28;20060;-79
2021/03/13 09:12:08;;;;;;;9.23;0.82;;;10.40;85.60;;;;;;5072039;28;20045;-79
2021/03/13 09:14:35;;;;;;;4.30;0.93;;;10.50;86.20;;;;;;5067597;28;20174;-80
2021/03/13 09:17:18;;;;;;;5.90;1.00;;;10.50;86.00;;;;;;5069845;28;20048;-79
2021/03/13 09:19:47;;;;;;;2.22;0.77;;;10.50;85.00;;;;;;5073216;28;20384;-78
2021/03/13 09:22:19;;;;;;;4.43;1.00;;;10.50;85.00;;;;;;5066400;28;20101;-78
2021/03/13 09:25:03;;;;;;;4.40;0.70;;;10.30;85.30;;;;;;5072070;28;20048;-80
2021/03/13 09:27:37;;;;;;;2.63;0.68;;;10.50;85.40;;;;;;5071593;28;20533;-81
2021/03/13 09:30:15;;;;;;;2.97;0.60;;;10.60;85.30;;;;;;5068311;28;20056;-76
2021/03/13 09:32:43;;;;;;;1.02;0.60;;;10.60;85.00;;;;;;5065334;28;20044;-77
2021/03/13 09:35:11;;;;;;;2.90;0.90;;;10.80;84.80;;;;;;5065363;28;20045;-81
2021/03/13 09:37:38;;;;;;;8.70;1.13;;;10.80;85.20;;;;;;5068103;28;20494;-80
2021/03/13 09:40:20;;;;;;;5.80;0.90;;;10.90;84.90;;;;;;5069120;28;20074;-75
2021/03/13 09:42:48;;;;;;;2.17;0.90;;;10.70;83.50;;;;;;5058816;28;20068;-80
2021/03/13 09:45:17;;;;;;;3.33;1.00;;;10.90;83.10;;;;;;5066083;28;20102;-79
2021/03/13 09:47:44;;;;;;;6.35;1.15;;;10.60;85.40;;;;;;5063751;28;20045;-82
2021/03/13 09:50:12;;;;;;;2.58;0.60;;;10.50;85.60;;;;;;5065641;28;20087;-79
2021/03/13 09:52:44;;;;;;;1.48;0.73;;;10.40;86.20;;;;;;5067187;28;20484;-80
2021/03/13 09:55:19;;;;;;;2.70;0.50;;;10.10;89.50;;;;;;5063971;28;20415;-79
2021/03/13 09:57:48;;;;;;;3.63;0.77;;;10.00;91.80;;;;;;5061974;28;20045;-79
2021/03/13 10:00:26;;;;;;;2.47;0.88;;;10.00;93.20;;;;;;5057886;28;20091;-76
2021/03/13 10:02:54;;;;;;;3.45;0.90;;;10.10;93.50;;;;;;5054747;28;20463;-80
2021/03/13 10:05:25;;;;;;;3.53;0.80;;;10.00;93.10;;;;;;5065414;28;20048;-80
2021/03/13 10:07:52;;;;;;;;;;;10.10;93.00;;;;;;5068577;28;20110;-78
2021/03/13 10:10:26;;;;;;;1.75;0.80;;;10.10;93.60;;;;;;5067732;28;19948;-81
2021/03/13 10:13:02;;;;;;;7.25;1.10;;;10.10;93.50;;;;;;5065952;28;20045;-79
2021/03/13 10:15:36;;;;;;;4.00;0.73;;;10.10;94.00;;;;;;5067002;28;20048;-81
2021/03/13 10:18:16;;;;;;;2.47;0.60;;;9.90;95.20;;;;;;5071199;28;20333;-81
2021/03/13 10:20:47;;;;;;;2.17;0.70;;;9.90;95.60;;;;;;5066152;28;20072;-80
2021/03/13 10:23:32;;;;;;;0.88;0.55;;;10.10;95.90;;;;;;5071219;28;20048;-81
2021/03/13 10:26:01;;;;;;;3.72;0.80;;;10.00;96.60;;;;;;5063619;28;20048;-79
2021/03/13 10:28:29;;;;;;;4.05;1.15;;;10.10;96.30;;;;;;5061807;28;20048;-80
2021/03/13 10:31:03;;;;;;;4.72;0.80;;;10.00;96.20;;;;;;5058986;28;20036;-80
2021/03/13 10:33:31;;;;;;;2.95;0.73;;;10.20;96.80;;;;;;5065249;28;20165;-80
2021/03/13 10:35:58;;;;;;;2.45;1.30;;;10.30;95.90;;;;;;5067895;28;20052;-79
2021/03/13 10:38:25;;;;;;;2.50;0.52;;;10.80;95.30;;;;;;5069242;28;20450;-79
2021/03/13 10:40:53;;;;;;;4.35;1.08;;;11.00;94.50;;;;;;5064619;28;20049;-78
2021/03/13 10:43:25;;;;;;;1.27;0.57;;;11.20;93.40;;;;;;5065797;28;20416;-79
2021/03/13 10:45:58;;;;;;;4.13;0.73;;;10.80;93.40;;;;;;5067683;28;20122;-80
2021/03/13 10:48:26;;;;;;;5.45;1.00;;;11.10;94.30;;;;;;5067708;28;20057;-80
2021/03/13 10:50:55;;;;;;;3.88;0.90;;;11.60;92.80;;;;;;5066019;28;20497;-80
2021/03/13 10:53:28;;;;;;;8.02;0.73;;;11.40;92.60;;;;;;5069387;28;20041;-80
2021/03/13 10:55:56;;;;;;;2.33;0.98;;;11.60;92.20;;;;;;5063277;28;20079;-80
2021/03/13 10:58:24;;;;;;;1.73;0.80;;;11.60;91.70;;;;;;5063530;28;20271;-80
2021/03/13 11:00:51;;;;;;;6.55;1.27;;;11.30;92.40;;;;;;5061410;28;20258;-78
2021/03/13 11:03:18;;;;;;;5.85;1.13;;;11.00;93.00;;;;;;5055075;28;20045;-79
2021/03/13 11:05:47;;;;;;;1.73;0.63;;;11.10;92.60;;;;;;5064542;28;20053;-78
2021/03/13 11:08:15;;;;;;;1.27;0.70;;;11.10;92.60;;;;;;5073486;28;20068;-79
2021/03/13 11:10:42;;;;;;;3.05;0.90;;;11.00;92.60;;;;;;5071673;28;20402;-79
2021/03/13 11:13:10;;;;;;;4.50;1.25;;;10.80;93.30;;;;;;5072963;28;20059;-80
2021/03/13 11:15:36;;;;;;;2.15;0.85;;;10.70;93.40;;;;;;5067325;28;20056;-79
2021/03/13 11:18:04;;;;;;;1.98;0.70;;;10.50;93.40;;;;;;5072674;28;20117;-80
2021/03/13 11:20:31;;;;;;;1.80;0.80;;;10.50;93.40;;;;;;5073440;28;20052;-80
2021/03/13 11:22:58;;;;;;;1.95;0.73;;;10.50;94.60;;;;;;5070623;28;20109;-79
2021/03/13 11:25:24;;;;;;;1.08;0.70;;;9.90;99.40;;;;;;5066115;28;20045;-79
2021/03/13 11:27:51;;;;;;;2.03;0.60;;;8.00;99.90;;;;;;5064067;28;20044;-78
2021/03/13 11:30:18;;;;;;;4.10;0.47;;;7.30;99.90;;;;;;5068446;28;20065;-78
2021/03/13 11:32:44;;;;;;;0.65;0.50;;;7.10;99.90;;;;;;5072857;28;20134;-79
2021/03/13 11:35:12;;;;;;;1.17;0.60;;;7.00;99.90;;;;;;5070683;28;20168;-78
2021/03/13 11:37:39;;;;;;;0.63;0.40;;;6.90;99.90;;;;;;5061095;28;20446;-78
2021/03/13 11:40:09;;;;;;;1.85;0.52;;;6.90;99.90;;;;;;5071683;28;20427;-77
2021/03/13 11:42:36;;;;;;;1.20;0.40;;;7.00;99.90;;;;;;5070840;28;20044;-78
2021/03/13 11:45:04;;;;;;;0.47;0.40;;;6.90;99.90;;;;;;5073240;28;20036;-78
2021/03/13 11:47:31;;;;;;;0.40;0.40;;;7.00;99.90;;;;;;5071113;28;20041;-77
2021/03/13 11:49:58;;;;;;;0.90;0.30;;;7.00;99.90;;;;;;5071863;28;20089;-77
2021/03/13 11:52:25;;;;;;;2.95;1.02;;;7.10;99.90;;;;;;5073302;28;20512;-77
2021/03/13 11:54:52;;;;;;;0.52;0.40;;;7.30;99.90;;;;;;5069354;28;20385;-76
2021/03/13 11:57:20;;;;;;;0.57;0.40;;;7.30;99.90;;;;;;5071215;28;23461;-79
2021/03/13 11:59:48;;;;;;;0.32;0.32;;;7.30;99.90;;;;;;5065647;28;20594;-77
2021/03/13 12:02:15;;;;;;;0.47;0.47;;;7.30;99.90;;;;;;5062634;28;20052;-77
2021/03/13 12:04:43;;;;;;;1.92;0.50;;;7.20;99.90;;;;;;5064886;28;20084;-77
2021/03/13 12:07:11;;;;;;;0.55;0.40;;;7.10;99.90;;;;;;5062917;28;20049;-81
2021/03/13 12:09:39;;;;;;;1.75;0.57;;;6.90;99.90;;;;;;5067938;28;20097;-83
2021/03/13 12:12:10;;;;;;;0.32;0.32;;;7.10;99.90;;;;;;5059703;28;20049;-78
2021/03/13 12:14:39;;;;;;;0.30;0.30;;;7.20;99.90;;;;;;5071018;28;20040;-76
2021/03/13 12:17:11;;;;;;;0.30;0.30;;;7.50;99.90;;;;;;5066248;28;21252;-77
2021/03/13 12:19:39;;;;;;;0.63;0.40;;;7.60;99.90;;;;;;5070622;28;20051;-78
2021/03/13 12:22:06;;;;;;;0.60;0.50;;;7.70;99.90;;;;;;5066190;28;20055;-77
2021/03/13 12:24:33;;;;;;;0.52;0.40;;;7.90;99.90;;;;;;5069292;28;20400;-77
2021/03/13 12:27:00;;;;;;;1.27;0.43;;;8.10;99.90;;;;;;5069335;28;20072;-78
2021/03/13 12:29:27;;;;;;;0.55;0.50;;;8.10;99.90;;;;;;5068577;28;20226;-78
2021/03/13 12:31:53;;;;;;;0.50;0.50;;;8.20;99.90;;;;;;5066830;28;20171;-77
2021/03/13 12:34:20;;;;;;;0.88;0.50;;;8.30;99.90;;;;;;5073477;28;20044;-77
2021/03/13 12:36:46;;;;;;;2.83;0.73;;;8.20;99.90;;;;;;5070843;28;20044;-77
2021/03/13 12:39:19;;;;;;;1.52;0.65;;;8.30;99.90;;;;;;5063894;28;20496;-77
2021/03/13 12:41:46;;;;;;;1.10;0.50;;;8.40;99.90;;;;;;5052358;28;20052;-77
2021/03/13 12:44:13;;;;;;;1.27;0.50;;;8.40;98.50;;;;;;5063312;28;20445;-78
2021/03/13 12:46:40;;;;;;;2.00;0.32;;;8.40;97.80;;;;;;5054776;28;20498;-77
2021/03/13 12:49:09;;;;;;;1.92;0.90;;;8.40;96.70;;;;;;5067205;28;20041;-77
2021/03/13 12:51:36;;;;;;;1.90;0.60;;;8.40;96.40;;;;;;5066049;28;20044;-77
2021/03/13 12:54:04;;;;;;;0.88;0.60;;;8.50;96.30;;;;;;5072393;28;20083;-77
2021/03/13 12:56:30;;;;;;;4.75;1.10;;;8.80;96.30;;;;;;5065507;28;20052;-77
2021/03/13 12:58:56;;;;;;;2.50;0.90;;;8.90;95.30;;;;;;5072538;28;20068;-77
2021/03/13 13:01:23;;;;;;;4.78;0.90;;;8.80;94.60;;;;;;5065225;28;20078;-76
2021/03/13 13:03:57;;;;;;;1.08;0.60;;;8.90;95.20;;;;;;5064916;28;20063;-77
2021/03/13 13:06:24;;;;;;;2.22;0.80;;;8.80;93.60;;;;;;5069753;28;20459;-78
2021/03/13 13:08:54;;;;;;;5.25;0.90;;;8.70;93.90;;;;;;5066894;28;20427;-78
2021/03/13 13:11:24;;;;;;;4.90;0.90;;;8.90;94.20;;;;;;5050535;28;20494;-78